sensor_id;sensor_type;location;lat;lon;timestamp;pressure;altitude;pressure_sealevel;temperature;humidity
29239;BME280;16267;48.194;11.546;2023-04-02T00:00:30;95172.03;;;8.31;76.87
29239;BME280;16267;48.194;11.546;2023-04-02T00:03:06;95174.59;;;8.38;77.00
29239;BME280;16267;48.194;11.546;2023-04-02T00:05:53;95180.28;;;8.43;76.73
29239;BME280;16267;48.194;11.546;2023-04-02T00:08:25;95181.84;;;8.41;76.05
29239;BME280;16267;48.194;11.546;2023-04-02T00:10:58;95184.19;;;8.35;76.38
29239;BME280;16267;48.194;11.546;2023-04-02T00:13:38;95192.19;;;8.39;76.94
29239;BME280;16267;48.194;11.546;2023-04-02T00:16:11;95186.38;;;8.44;76.49
29239;BME280;16267;48.194;11.546;2023-04-02T00:18:51;95194.34;;;8.47;76.49
29239;BME280;16267;48.194;11.546;2023-04-02T00:21:26;95186.78;;;8.42;75.86
29239;BME280;16267;48.194;11.546;2023-04-02T00:23:55;95192.94;;;8.39;76.53
29239;BME280;16267;48.194;11.546;2023-04-02T00:26:30;95195.66;;;8.36;76.38
29239;BME280;16267;48.194;11.546;2023-04-02T00:29:04;95195.97;;;8.41;76.52
29239;BME280;16267;48.194;11.546;2023-04-02T00:31:32;95198.72;;;8.34;76.16
29239;BME280;16267;48.194;11.546;2023-04-02T00:34:00;95203.25;;;8.41;76.64
29239;BME280;16267;48.194;11.546;2023-04-02T00:36:30;95198.31;;;8.36;77.08
29239;BME280;16267;48.194;11.546;2023-04-02T00:39:03;95198.28;;;8.39;76.61
29239;BME280;16267;48.194;11.546;2023-04-02T00:41:31;95207.84;;;8.37;76.05
29239;BME280;16267;48.194;11.546;2023-04-02T00:44:00;95196.50;;;8.29;76.53
29239;BME280;16267;48.194;11.546;2023-04-02T00:46:40;95196.97;;;8.24;76.81
29239;BME280;16267;48.194;11.546;2023-04-02T00:49:31;95185.25;;;8.14;76.66
29239;BME280;16267;48.194;11.546;2023-04-02T00:52:16;95189.47;;;8.12;77.07
29239;BME280;16267;48.194;11.546;2023-04-02T00:57:28;95198.34;;;8.05;77.33
29239;BME280;16267;48.194;11.546;2023-04-02T00:59:56;95197.09;;;8.13;77.87
29239;BME280;16267;48.194;11.546;2023-04-02T01:05:02;95196.00;;;8.11;76.97
29239;BME280;16267;48.194;11.546;2023-04-02T01:08:25;95201.28;;;8.14;76.92
29239;BME280;16267;48.194;11.546;2023-04-02T01:22:54;95206.94;;;8.20;77.41
29239;BME280;16267;48.194;11.546;2023-04-02T01:26:03;95206.47;;;7.98;77.78
29239;BME280;16267;48.194;11.546;2023-04-02T01:29:05;95217.06;;;8.05;77.90
29239;BME280;16267;48.194;11.546;2023-04-02T01:31:33;95211.84;;;7.94;77.90
29239;BME280;16267;48.194;11.546;2023-04-02T01:34:02;95207.53;;;8.04;77.92
29239;BME280;16267;48.194;11.546;2023-04-02T01:43:02;95224.50;;;7.90;78.59
29239;BME280;16267;48.194;11.546;2023-04-02T01:45:29;95220.63;;;7.95;78.22
29239;BME280;16267;48.194;11.546;2023-04-02T01:47:55;95223.59;;;8.00;78.68
29239;BME280;16267;48.194;11.546;2023-04-02T01:50:27;95221.66;;;8.04;77.71
29239;BME280;16267;48.194;11.546;2023-04-02T01:53:01;95225.78;;;8.09;78.23
29239;BME280;16267;48.194;11.546;2023-04-02T01:55:37;95222.09;;;7.99;77.93
29239;BME280;16267;48.194;11.546;2023-04-02T01:58:04;95230.56;;;7.94;78.35
29239;BME280;16267;48.194;11.546;2023-04-02T02:00:31;95230.47;;;8.01;78.31
29239;BME280;16267;48.194;11.546;2023-04-02T02:03:00;95238.00;;;8.10;78.26
29239;BME280;16267;48.194;11.546;2023-04-02T02:05:26;95236.44;;;8.13;77.99
29239;BME280;16267;48.194;11.546;2023-04-02T02:07:55;95236.09;;;8.11;78.25
29239;BME280;16267;48.194;11.546;2023-04-02T02:10:33;95242.22;;;8.08;78.34
29239;BME280;16267;48.194;11.546;2023-04-02T02:12:59;95242.19;;;8.11;78.34
29239;BME280;16267;48.194;11.546;2023-04-02T02:15:26;95242.59;;;8.10;78.25
29239;BME280;16267;48.194;11.546;2023-04-02T02:17:59;95252.47;;;8.13;78.00
29239;BME280;16267;48.194;11.546;2023-04-02T02:20:27;95242.66;;;8.02;78.33
29239;BME280;16267;48.194;11.546;2023-04-02T02:22:55;95244.97;;;8.00;78.89
29239;BME280;16267;48.194;11.546;2023-04-02T02:25:26;95243.56;;;7.92;79.48
29239;BME280;16267;48.194;11.546;2023-04-02T02:31:09;95249.56;;;8.00;79.74
29239;BME280;16267;48.194;11.546;2023-04-02T02:33:45;95249.94;;;8.02;78.89
29239;BME280;16267;48.194;11.546;2023-04-02T02:36:46;95254.91;;;8.00;79.11
29239;BME280;16267;48.194;11.546;2023-04-02T02:39:33;95255.34;;;7.98;79.34
29239;BME280;16267;48.194;11.546;2023-04-02T02:42:37;95261.47;;;7.95;79.25
29239;BME280;16267;48.194;11.546;2023-04-02T02:45:11;95268.28;;;8.00;79.10
29239;BME280;16267;48.194;11.546;2023-04-02T02:47:41;95275.19;;;7.97;78.87
29239;BME280;16267;48.194;11.546;2023-04-02T02:50:17;95271.69;;;8.04;78.89
29239;BME280;16267;48.194;11.546;2023-04-02T02:52:56;95282.44;;;7.97;78.64
29239;BME280;16267;48.194;11.546;2023-04-02T02:55:30;95279.66;;;8.08;79.09
29239;BME280;16267;48.194;11.546;2023-04-02T02:58:13;95281.47;;;8.14;78.22
29239;BME280;16267;48.194;11.546;2023-04-02T03:00:41;95286.16;;;8.07;78.73
29239;BME280;16267;48.194;11.546;2023-04-02T03:03:13;95285.78;;;8.04;78.08
29239;BME280;16267;48.194;11.546;2023-04-02T03:05:41;95285.03;;;8.04;78.59
29239;BME280;16267;48.194;11.546;2023-04-02T03:08:17;95287.66;;;8.08;78.53
29239;BME280;16267;48.194;11.546;2023-04-02T03:11:44;95289.94;;;8.09;78.56
29239;BME280;16267;48.194;11.546;2023-04-02T03:17:05;95288.22;;;7.92;78.66
29239;BME280;16267;48.194;11.546;2023-04-02T03:19:57;95290.81;;;7.99;78.83
29239;BME280;16267;48.194;11.546;2023-04-02T03:22:36;95297.25;;;8.05;79.11
29239;BME280;16267;48.194;11.546;2023-04-02T03:28:06;95302.91;;;8.11;77.82
29239;BME280;16267;48.194;11.546;2023-04-02T03:33:31;95307.66;;;7.96;77.93
29239;BME280;16267;48.194;11.546;2023-04-02T03:39:08;95313.81;;;7.93;78.35
29239;BME280;16267;48.194;11.546;2023-04-02T03:41:43;95308.81;;;7.95;78.77
29239;BME280;16267;48.194;11.546;2023-04-02T03:44:43;95315.69;;;7.96;78.19
29239;BME280;16267;48.194;11.546;2023-04-02T03:47:38;95317.94;;;7.97;77.63
29239;BME280;16267;48.194;11.546;2023-04-02T03:50:07;95319.38;;;8.05;77.93
29239;BME280;16267;48.194;11.546;2023-04-02T03:52:36;95317.50;;;8.02;77.61
29239;BME280;16267;48.194;11.546;2023-04-02T03:55:15;95311.41;;;8.02;77.61
29239;BME280;16267;48.194;11.546;2023-04-02T04:01:28;95330.50;;;8.00;78.74
29239;BME280;16267;48.194;11.546;2023-04-02T04:04:18;95327.16;;;7.93;78.00
29239;BME280;16267;48.194;11.546;2023-04-02T04:06:46;95329.91;;;7.86;78.03
29239;BME280;16267;48.194;11.546;2023-04-02T04:09:32;95327.94;;;7.90;78.47
29239;BME280;16267;48.194;11.546;2023-04-02T04:12:41;95337.50;;;7.91;78.46
29239;BME280;16267;48.194;11.546;2023-04-02T04:21:01;95348.97;;;7.84;78.84
29239;BME280;16267;48.194;11.546;2023-04-02T04:23:36;95347.16;;;7.77;78.84
29239;BME280;16267;48.194;11.546;2023-04-02T04:26:40;95352.13;;;7.79;78.61
29239;BME280;16267;48.194;11.546;2023-04-02T04:31:47;95356.06;;;7.64;79.70
29239;BME280;16267;48.194;11.546;2023-04-02T04:34:28;95360.56;;;7.70;79.62
29239;BME280;16267;48.194;11.546;2023-04-02T04:37:00;95363.66;;;7.69;79.61
29239;BME280;16267;48.194;11.546;2023-04-02T04:39:46;95365.94;;;7.67;79.94
29239;BME280;16267;48.194;11.546;2023-04-02T04:42:26;95372.41;;;7.69;79.85
29239;BME280;16267;48.194;11.546;2023-04-02T04:45:05;95374.28;;;7.72;79.71
29239;BME280;16267;48.194;11.546;2023-04-02T04:47:42;95379.59;;;7.79;79.50
29239;BME280;16267;48.194;11.546;2023-04-02T04:52:42;95384.94;;;7.79;79.38
29239;BME280;16267;48.194;11.546;2023-04-02T04:57:58;95391.38;;;7.82;79.40
29239;BME280;16267;48.194;11.546;2023-04-02T05:06:06;95396.91;;;7.60;79.54
29239;BME280;16267;48.194;11.546;2023-04-02T05:08:38;95400.63;;;7.70;79.70
29239;BME280;16267;48.194;11.546;2023-04-02T05:11:22;95403.75;;;7.62;79.60
29239;BME280;16267;48.194;11.546;2023-04-02T05:14:05;95410.25;;;7.60;80.36
29239;BME280;16267;48.194;11.546;2023-04-02T05:16:40;95407.97;;;7.59;80.19
29239;BME280;16267;48.194;11.546;2023-04-02T05:19:17;95414.44;;;7.65;80.40
29239;BME280;16267;48.194;11.546;2023-04-02T05:21:56;95416.00;;;7.59;80.47
29239;BME280;16267;48.194;11.546;2023-04-02T05:25:29;95423.31;;;7.51;80.53
29239;BME280;16267;48.194;11.546;2023-04-02T05:28:00;95430.13;;;7.56;80.51
29239;BME280;16267;48.194;11.546;2023-04-02T05:32:59;95431.72;;;7.50;80.27
29239;BME280;16267;48.194;11.546;2023-04-02T05:35:47;95433.59;;;7.53;80.87
29239;BME280;16267;48.194;11.546;2023-04-02T05:38:22;95432.47;;;7.54;80.73
29239;BME280;16267;48.194;11.546;2023-04-02T05:41:01;95438.22;;;7.49;81.10
29239;BME280;16267;48.194;11.546;2023-04-02T05:43:31;95437.44;;;7.52;80.75
29239;BME280;16267;48.194;11.546;2023-04-02T05:46:01;95443.53;;;7.52;80.87
29239;BME280;16267;48.194;11.546;2023-04-02T05:48:39;95437.00;;;7.57;81.02
29239;BME280;16267;48.194;11.546;2023-04-02T05:51:16;95444.28;;;7.53;81.48
29239;BME280;16267;48.194;11.546;2023-04-02T05:53:53;95445.84;;;7.47;81.14
29239;BME280;16267;48.194;11.546;2023-04-02T05:56:44;95450.03;;;7.51;81.03
29239;BME280;16267;48.194;11.546;2023-04-02T05:59:24;95455.75;;;7.50;80.92
29239;BME280;16267;48.194;11.546;2023-04-02T06:01:57;95459.53;;;7.52;81.17
29239;BME280;16267;48.194;11.546;2023-04-02T06:04:55;95462.66;;;7.44;81.27
29239;BME280;16267;48.194;11.546;2023-04-02T06:07:30;95463.34;;;7.55;81.51
29239;BME280;16267;48.194;11.546;2023-04-02T06:12:48;95467.94;;;7.54;81.01
29239;BME280;16267;48.194;11.546;2023-04-02T06:15:21;95467.63;;;7.42;81.54
29239;BME280;16267;48.194;11.546;2023-04-02T06:18:29;95470.19;;;7.56;81.53
29239;BME280;16267;48.194;11.546;2023-04-02T06:20:53;95476.22;;;7.67;81.35
29239;BME280;16267;48.194;11.546;2023-04-02T06:23:36;95465.97;;;7.58;80.83
29239;BME280;16267;48.194;11.546;2023-04-02T06:31:44;95482.00;;;7.58;81.08
29239;BME280;16267;48.194;11.546;2023-04-02T06:34:39;95490.75;;;7.63;80.90
29239;BME280;16267;48.194;11.546;2023-04-02T06:37:35;95491.16;;;7.61;80.96
29239;BME280;16267;48.194;11.546;2023-04-02T06:40:25;95492.63;;;7.69;80.70
29239;BME280;16267;48.194;11.546;2023-04-02T06:42:50;95498.34;;;7.71;81.35
29239;BME280;16267;48.194;11.546;2023-04-02T06:45:30;95501.34;;;7.77;81.24
29239;BME280;16267;48.194;11.546;2023-04-02T06:48:00;95503.19;;;7.83;80.22
29239;BME280;16267;48.194;11.546;2023-04-02T06:50:47;95510.00;;;7.95;80.97
29239;BME280;16267;48.194;11.546;2023-04-02T06:54:01;95516.41;;;8.05;80.68
29239;BME280;16267;48.194;11.546;2023-04-02T06:56:48;95527.13;;;8.01;79.39
29239;BME280;16267;48.194;11.546;2023-04-02T06:59:16;95531.00;;;7.93;79.35
29239;BME280;16267;48.194;11.546;2023-04-02T07:02:03;95529.00;;;8.04;80.18
29239;BME280;16267;48.194;11.546;2023-04-02T07:04:42;95535.81;;;8.13;80.08
29239;BME280;16267;48.194;11.546;2023-04-02T07:07:08;95539.94;;;8.21;79.94
29239;BME280;16267;48.194;11.546;2023-04-02T07:09:33;95539.53;;;8.26;80.18
29239;BME280;16267;48.194;11.546;2023-04-02T07:11:59;95538.31;;;8.34;79.94
29239;BME280;16267;48.194;11.546;2023-04-02T07:14:25;95539.81;;;8.35;79.27
29239;BME280;16267;48.194;11.546;2023-04-02T07:16:51;95545.84;;;8.46;79.84
29239;BME280;16267;48.194;11.546;2023-04-02T07:19:20;95543.88;;;8.54;79.30
29239;BME280;16267;48.194;11.546;2023-04-02T07:21:47;95538.44;;;8.61;79.00
29239;BME280;16267;48.194;11.546;2023-04-02T07:24:13;95545.63;;;8.71;78.91
29239;BME280;16267;48.194;11.546;2023-04-02T07:26:39;95550.59;;;8.69;77.87
29239;BME280;16267;48.194;11.546;2023-04-02T07:29:07;95552.78;;;8.82;78.73
29239;BME280;16267;48.194;11.546;2023-04-02T07:32:15;95554.22;;;8.90;78.06
29239;BME280;16267;48.194;11.546;2023-04-02T07:34:41;95559.91;;;8.92;76.85
29239;BME280;16267;48.194;11.546;2023-04-02T07:37:13;95560.59;;;9.00;77.75
29239;BME280;16267;48.194;11.546;2023-04-02T07:39:39;95560.88;;;9.09;78.00
29239;BME280;16267;48.194;11.546;2023-04-02T07:42:04;95558.88;;;9.16;77.49
29239;BME280;16267;48.194;11.546;2023-04-02T07:44:30;95562.84;;;9.05;76.42
29239;BME280;16267;48.194;11.546;2023-04-02T07:46:56;95559.47;;;9.01;76.19
29239;BME280;16267;48.194;11.546;2023-04-02T07:49:22;95561.22;;;9.14;77.18
29239;BME280;16267;48.194;11.546;2023-04-02T07:51:47;95572.38;;;9.09;77.02
29239;BME280;16267;48.194;11.546;2023-04-02T07:54:13;95568.09;;;9.15;76.94
29239;BME280;16267;48.194;11.546;2023-04-02T07:56:39;95570.63;;;9.26;76.40
29239;BME280;16267;48.194;11.546;2023-04-02T07:59:05;95578.56;;;9.33;77.34
29239;BME280;16267;48.194;11.546;2023-04-02T08:01:32;95583.09;;;9.40;76.88
29239;BME280;16267;48.194;11.546;2023-04-02T08:04:01;95583.44;;;9.42;76.05
29239;BME280;16267;48.194;11.546;2023-04-02T08:06:46;95586.66;;;9.30;75.97
29239;BME280;16267;48.194;11.546;2023-04-02T08:09:13;95588.47;;;9.36;75.85
29239;BME280;16267;48.194;11.546;2023-04-02T08:11:41;95584.72;;;9.30;75.58
29239;BME280;16267;48.194;11.546;2023-04-02T08:14:34;95590.41;;;9.36;75.64
29239;BME280;16267;48.194;11.546;2023-04-02T08:17:00;95595.31;;;9.41;76.22
29239;BME280;16267;48.194;11.546;2023-04-02T08:19:26;95596.00;;;9.49;75.86
29239;BME280;16267;48.194;11.546;2023-04-02T08:21:52;95603.16;;;9.59;76.31
29239;BME280;16267;48.194;11.546;2023-04-02T08:24:19;95599.19;;;9.36;75.60
29239;BME280;16267;48.194;11.546;2023-04-02T08:26:47;95607.97;;;9.41;74.71
29239;BME280;16267;48.194;11.546;2023-04-02T08:29:13;95606.63;;;9.56;76.09
29239;BME280;16267;48.194;11.546;2023-04-02T08:31:39;95612.13;;;9.45;74.89
29239;BME280;16267;48.194;11.546;2023-04-02T08:34:05;95618.38;;;9.66;75.66
29239;BME280;16267;48.194;11.546;2023-04-02T08:36:37;95617.47;;;9.45;74.91
29239;BME280;16267;48.194;11.546;2023-04-02T08:39:05;95612.63;;;9.67;75.50
29239;BME280;16267;48.194;11.546;2023-04-02T08:47:04;95620.72;;;10.18;74.53
29239;BME280;16267;48.194;11.546;2023-04-02T08:49:58;95619.66;;;10.39;74.31
29239;BME280;16267;48.194;11.546;2023-04-02T08:52:33;95621.78;;;10.51;72.71
29239;BME280;16267;48.194;11.546;2023-04-02T08:55:01;95616.56;;;10.64;71.75
29239;BME280;16267;48.194;11.546;2023-04-02T08:57:47;95621.72;;;10.78;71.68
29239;BME280;16267;48.194;11.546;2023-04-02T09:03:01;95625.75;;;10.90;68.56
29239;BME280;16267;48.194;11.546;2023-04-02T09:05:39;95628.53;;;11.06;69.67
29239;BME280;16267;48.194;11.546;2023-04-02T09:08:18;95630.50;;;11.02;69.10
29239;BME280;16267;48.194;11.546;2023-04-02T09:11:00;95627.00;;;11.05;68.77
29239;BME280;16267;48.194;11.546;2023-04-02T09:13:29;95634.94;;;10.89;67.56
29239;BME280;16267;48.194;11.546;2023-04-02T09:19:22;95639.28;;;11.26;68.54
29239;BME280;16267;48.194;11.546;2023-04-02T09:22:06;95635.81;;;11.06;65.78
29239;BME280;16267;48.194;11.546;2023-04-02T09:24:34;95641.59;;;11.04;67.22
29239;BME280;16267;48.194;11.546;2023-04-02T09:27:01;95642.50;;;10.98;66.42
29239;BME280;16267;48.194;11.546;2023-04-02T09:29:43;95645.97;;;10.94;67.96
29239;BME280;16267;48.194;11.546;2023-04-02T09:35:19;95651.44;;;11.11;68.31
29239;BME280;16267;48.194;11.546;2023-04-02T09:37:46;95657.81;;;11.21;68.19
29239;BME280;16267;48.194;11.546;2023-04-02T09:40:22;95665.78;;;11.04;67.00
29239;BME280;16267;48.194;11.546;2023-04-02T09:42:48;95665.50;;;11.19;68.28
29239;BME280;16267;48.194;11.546;2023-04-02T09:45:22;95668.38;;;11.31;67.15
29239;BME280;16267;48.194;11.546;2023-04-02T09:47:50;95663.47;;;11.26;65.74
29239;BME280;16267;48.194;11.546;2023-04-02T09:52:46;95666.22;;;11.23;65.68
29239;BME280;16267;48.194;11.546;2023-04-02T09:55:29;95671.06;;;11.31;65.45
29239;BME280;16267;48.194;11.546;2023-04-02T09:58:15;95671.13;;;11.48;66.29
29239;BME280;16267;48.194;11.546;2023-04-02T10:00:52;95672.84;;;11.58;65.80
29239;BME280;16267;48.194;11.546;2023-04-02T10:03:28;95678.28;;;11.74;65.15
29239;BME280;16267;48.194;11.546;2023-04-02T10:06:12;95669.63;;;11.87;65.91
29239;BME280;16267;48.194;11.546;2023-04-02T10:08:42;95672.44;;;11.59;63.29
29239;BME280;16267;48.194;11.546;2023-04-02T10:14:10;95675.13;;;11.79;64.79
29239;BME280;16267;48.194;11.546;2023-04-02T10:16:52;95674.34;;;11.99;65.07
29239;BME280;16267;48.194;11.546;2023-04-02T10:19:39;95670.88;;;12.18;65.44
29239;BME280;16267;48.194;11.546;2023-04-02T10:22:17;95674.84;;;12.30;64.43
29239;BME280;16267;48.194;11.546;2023-04-02T10:24:44;95669.22;;;12.41;64.38
29239;BME280;16267;48.194;11.546;2023-04-02T10:27:50;95671.59;;;12.55;64.00
29239;BME280;16267;48.194;11.546;2023-04-02T10:33:17;95673.19;;;12.69;61.94
29239;BME280;16267;48.194;11.546;2023-04-02T10:36:15;95685.38;;;12.41;61.41
29239;BME280;16267;48.194;11.546;2023-04-02T10:38:49;95685.03;;;12.55;61.81
29239;BME280;16267;48.194;11.546;2023-04-02T10:45:17;95690.94;;;12.66;62.66
29239;BME280;16267;48.194;11.546;2023-04-02T10:51:12;95693.31;;;12.81;60.74
29239;BME280;16267;48.194;11.546;2023-04-02T10:54:12;95692.22;;;12.78;60.42
29239;BME280;16267;48.194;11.546;2023-04-02T10:56:41;95689.34;;;12.69;60.29
29239;BME280;16267;48.194;11.546;2023-04-02T10:59:14;95697.50;;;12.65;60.64
29239;BME280;16267;48.194;11.546;2023-04-02T11:01:42;95699.09;;;12.63;60.97
29239;BME280;16267;48.194;11.546;2023-04-02T11:04:44;95709.13;;;12.62;62.42
29239;BME280;16267;48.194;11.546;2023-04-02T11:07:19;95711.06;;;12.62;61.07
29239;BME280;16267;48.194;11.546;2023-04-02T11:09:50;95713.25;;;12.67;62.06
29239;BME280;16267;48.194;11.546;2023-04-02T11:12:43;95710.22;;;12.65;61.49
29239;BME280;16267;48.194;11.546;2023-04-02T11:15:15;95709.03;;;12.66;62.06
29239;BME280;16267;48.194;11.546;2023-04-02T11:17:44;95719.66;;;12.73;62.48
29239;BME280;16267;48.194;11.546;2023-04-02T11:21:02;95718.72;;;12.80;62.98
29239;BME280;16267;48.194;11.546;2023-04-02T11:23:35;95717.81;;;12.86;63.34
29239;BME280;16267;48.194;11.546;2023-04-02T11:26:34;95724.09;;;12.96;63.39
29239;BME280;16267;48.194;11.546;2023-04-02T11:29:30;95717.88;;;12.99;64.34
29239;BME280;16267;48.194;11.546;2023-04-02T11:37:41;95728.84;;;13.08;61.23
29239;BME280;16267;48.194;11.546;2023-04-02T11:42:47;95725.28;;;13.11;62.65
29239;BME280;16267;48.194;11.546;2023-04-02T11:50:44;95725.44;;;13.37;62.94
29239;BME280;16267;48.194;11.546;2023-04-02T11:55:44;95726.09;;;13.41;60.12
29239;BME280;16267;48.194;11.546;2023-04-02T11:58:44;95730.22;;;13.46;58.88
29239;BME280;16267;48.194;11.546;2023-04-02T12:07:49;95725.84;;;13.81;58.96
29239;BME280;16267;48.194;11.546;2023-04-02T12:12:45;95735.34;;;13.86;55.97
29239;BME280;16267;48.194;11.546;2023-04-02T12:15:33;95739.56;;;13.87;55.42
29239;BME280;16267;48.194;11.546;2023-04-02T12:18:23;95741.75;;;13.92;56.71
29239;BME280;16267;48.194;11.546;2023-04-02T12:20:53;95746.03;;;13.89;57.09
29239;BME280;16267;48.194;11.546;2023-04-02T12:25:59;95760.91;;;13.81;59.58
29239;BME280;16267;48.194;11.546;2023-04-02T12:28:28;95757.22;;;13.75;61.33
29239;BME280;16267;48.194;11.546;2023-04-02T12:31:03;95761.19;;;13.70;62.05
29239;BME280;16267;48.194;11.546;2023-04-02T12:33:32;95759.75;;;13.66;62.79
29239;BME280;16267;48.194;11.546;2023-04-02T12:36:04;95773.00;;;13.60;63.25
29239;BME280;16267;48.194;11.546;2023-04-02T12:38:55;95772.16;;;13.47;63.73
29239;BME280;16267;48.194;11.546;2023-04-02T12:41:31;95775.47;;;13.38;64.22
29239;BME280;16267;48.194;11.546;2023-04-02T12:46:46;95781.38;;;13.16;66.10
29239;BME280;16267;48.194;11.546;2023-04-02T12:49:51;95783.13;;;13.07;67.00
29239;BME280;16267;48.194;11.546;2023-04-02T12:52:21;95786.66;;;13.04;67.42
29239;BME280;16267;48.194;11.546;2023-04-02T12:54:56;95785.97;;;13.00;68.03
29239;BME280;16267;48.194;11.546;2023-04-02T12:57:30;95788.00;;;12.95;68.27
29239;BME280;16267;48.194;11.546;2023-04-02T13:05:55;95790.28;;;12.81;69.58
29239;BME280;16267;48.194;11.546;2023-04-02T13:08:31;95785.38;;;12.76;69.64
29239;BME280;16267;48.194;11.546;2023-04-02T13:11:04;95795.44;;;12.71;69.95
29239;BME280;16267;48.194;11.546;2023-04-02T13:13:36;95794.78;;;12.67;70.18
29239;BME280;16267;48.194;11.546;2023-04-02T13:18:37;95793.00;;;12.61;70.61
29239;BME280;16267;48.194;11.546;2023-04-02T13:21:25;95798.09;;;12.55;70.30
29239;BME280;16267;48.194;11.546;2023-04-02T13:23:54;95801.22;;;12.54;71.52
29239;BME280;16267;48.194;11.546;2023-04-02T13:26:26;95798.94;;;12.52;71.59
29239;BME280;16267;48.194;11.546;2023-04-02T13:29:16;95800.88;;;12.52;71.47
29239;BME280;16267;48.194;11.546;2023-04-02T13:31:43;95801.72;;;12.48;72.47
29239;BME280;16267;48.194;11.546;2023-04-02T13:34:09;95793.66;;;12.48;72.43
29239;BME280;16267;48.194;11.546;2023-04-02T13:36:34;95793.28;;;12.46;72.38
29239;BME280;16267;48.194;11.546;2023-04-02T13:39:02;95793.28;;;12.46;72.67
29239;BME280;16267;48.194;11.546;2023-04-02T13:41:30;95800.22;;;12.47;73.08
29239;BME280;16267;48.194;11.546;2023-04-02T13:44:00;95800.97;;;12.48;73.49
29239;BME280;16267;48.194;11.546;2023-04-02T13:46:30;95802.19;;;12.43;75.29
29239;BME280;16267;48.194;11.546;2023-04-02T13:48:57;95801.06;;;12.44;75.49
29239;BME280;16267;48.194;11.546;2023-04-02T13:51:34;95804.16;;;12.43;75.39
29239;BME280;16267;48.194;11.546;2023-04-02T13:54:02;95794.22;;;12.40;75.98
29239;BME280;16267;48.194;11.546;2023-04-02T13:56:31;95801.94;;;12.38;75.83
29239;BME280;16267;48.194;11.546;2023-04-02T13:58:57;95802.16;;;12.27;76.38
29239;BME280;16267;48.194;11.546;2023-04-02T14:01:24;95803.63;;;12.12;76.72
29239;BME280;16267;48.194;11.546;2023-04-02T14:03:51;95812.28;;;11.99;76.39
29239;BME280;16267;48.194;11.546;2023-04-02T14:06:25;95808.91;;;11.95;77.29
29239;BME280;16267;48.194;11.546;2023-04-02T14:09:21;95824.03;;;11.89;77.95
29239;BME280;16267;48.194;11.546;2023-04-02T14:12:29;95826.03;;;11.81;77.84
29239;BME280;16267;48.194;11.546;2023-04-02T14:24:11;95843.88;;;11.72;77.53
29239;BME280;16267;48.194;11.546;2023-04-02T14:27:34;95842.75;;;11.69;76.22
29239;BME280;16267;48.194;11.546;2023-04-02T14:33:24;95846.78;;;11.57;74.93
29239;BME280;16267;48.194;11.546;2023-04-02T14:36:23;95849.56;;;11.54;75.19
29239;BME280;16267;48.194;11.546;2023-04-02T14:42:21;95846.22;;;11.46;76.05
29239;BME280;16267;48.194;11.546;2023-04-02T14:51:46;95859.59;;;11.50;76.35
29239;BME280;16267;48.194;11.546;2023-04-02T15:02:42;95861.53;;;11.49;77.36
29239;BME280;16267;48.194;11.546;2023-04-02T15:05:41;95867.31;;;11.48;77.17
29239;BME280;16267;48.194;11.546;2023-04-02T15:11:02;95872.34;;;11.46;77.30
29239;BME280;16267;48.194;11.546;2023-04-02T15:16:34;95878.88;;;11.45;77.29
29239;BME280;16267;48.194;11.546;2023-04-02T15:19:03;95873.16;;;11.43;77.37
29239;BME280;16267;48.194;11.546;2023-04-02T15:21:41;95885.06;;;11.42;79.09
29239;BME280;16267;48.194;11.546;2023-04-02T15:24:50;95882.03;;;11.39;78.26
29239;BME280;16267;48.194;11.546;2023-04-02T15:27:27;95886.28;;;11.37;77.83
29239;BME280;16267;48.194;11.546;2023-04-02T15:32:46;95893.63;;;11.33;77.73
29239;BME280;16267;48.194;11.546;2023-04-02T15:35:22;95896.44;;;11.26;77.96
29239;BME280;16267;48.194;11.546;2023-04-02T15:40:54;95901.97;;;11.15;78.77
29239;BME280;16267;48.194;11.546;2023-04-02T15:55:21;95927.91;;;10.94;78.97
29239;BME280;16267;48.194;11.546;2023-04-02T15:58:27;95926.03;;;10.91;78.60
29239;BME280;16267;48.194;11.546;2023-04-02T16:04:23;95940.69;;;10.87;78.92
29239;BME280;16267;48.194;11.546;2023-04-02T16:10:15;95948.81;;;10.80;79.48
29239;BME280;16267;48.194;11.546;2023-04-02T16:12:50;95950.38;;;10.77;79.70
29239;BME280;16267;48.194;11.546;2023-04-02T16:15:35;95952.38;;;10.73;79.56
29239;BME280;16267;48.194;11.546;2023-04-02T16:21:16;95963.94;;;10.66;79.69
29239;BME280;16267;48.194;11.546;2023-04-02T16:23:43;95964.78;;;10.60;79.64
29239;BME280;16267;48.194;11.546;2023-04-02T16:38:07;95994.66;;;10.20;79.92
29239;BME280;16267;48.194;11.546;2023-04-02T16:41:03;95996.19;;;10.18;80.25
29239;BME280;16267;48.194;11.546;2023-04-02T16:43:55;95997.38;;;10.13;80.59
29239;BME280;16267;48.194;11.546;2023-04-02T16:46:58;96003.91;;;10.12;80.62
29239;BME280;16267;48.194;11.546;2023-04-02T16:55:56;96018.91;;;10.02;80.62
29239;BME280;16267;48.194;11.546;2023-04-02T17:02:29;96031.28;;;9.89;79.71
29239;BME280;16267;48.194;11.546;2023-04-02T17:12:49;96048.66;;;9.67;79.16
29239;BME280;16267;48.194;11.546;2023-04-02T17:15:26;96051.38;;;9.59;78.28
29239;BME280;16267;48.194;11.546;2023-04-02T17:17:56;96055.22;;;9.55;78.50
29239;BME280;16267;48.194;11.546;2023-04-02T17:20:25;96056.38;;;9.50;78.62
29239;BME280;16267;48.194;11.546;2023-04-02T17:22:51;96063.69;;;9.46;78.49
29239;BME280;16267;48.194;11.546;2023-04-02T17:25:29;96073.28;;;9.40;78.42
29239;BME280;16267;48.194;11.546;2023-04-02T17:27:56;96077.88;;;9.36;78.35
29239;BME280;16267;48.194;11.546;2023-04-02T17:30:34;96080.97;;;9.31;78.03
29239;BME280;16267;48.194;11.546;2023-04-02T17:33:15;96091.69;;;9.27;78.40
29239;BME280;16267;48.194;11.546;2023-04-02T17:39:05;96090.59;;;9.14;77.98
29239;BME280;16267;48.194;11.546;2023-04-02T17:42:00;96099.78;;;9.13;78.52
29239;BME280;16267;48.194;11.546;2023-04-02T17:45:03;96100.19;;;9.04;78.84